Time;durP1;ratioP1;P1;durP2;ratioP2;P2;SDS_P1;SDS_P2;PMS_P1;PMS_P2;Temp;Humidity;BMP_temperature;BMP_pressure;BME280_temperature;BME280_humidity;BME280_pressure;Samples;Min_cycle;Max_cycle;Signal;HPM_P1;HPM_P2
2022/08/06 00:01:50;;;;;;;4.75;1.15;;;14.20;99.90;;;;;;5065802;28;20565;-67
2022/08/06 00:04:17;;;;;;;2.42;1.38;;;14.20;99.90;;;;;;5071188;28;20092;-67
2022/08/06 00:06:43;;;;;;;7.15;1.63;;;14.30;99.90;;;;;;5070204;28;20040;-67
2022/08/06 00:09:10;;;;;;;2.47;1.20;;;14.30;99.90;;;;;;5051673;28;20453;-68
2022/08/06 00:11:36;;;;;;;5.00;1.45;;;14.20;99.90;;;;;;5070727;28;20056;-68
2022/08/06 00:14:02;;;;;;;4.70;1.52;;;14.20;99.90;;;;;;5062501;28;20395;-67
2022/08/06 00:16:28;;;;;;;3.88;1.40;;;14.20;99.90;;;;;;5070598;28;20040;-68
2022/08/06 00:18:53;;;;;;;3.13;1.20;;;14.10;99.90;;;;;;5070392;28;20043;-68
2022/08/06 00:21:19;;;;;;;4.47;1.45;;;14.10;99.90;;;;;;5064742;28;20043;-68
2022/08/06 00:23:45;;;;;;;3.00;1.33;;;14.00;99.90;;;;;;5036205;28;20116;-68
2022/08/06 00:26:11;;;;;;;5.72;1.27;;;14.00;99.90;;;;;;5062767;28;20127;-68
2022/08/06 00:28:37;;;;;;;4.00;1.33;;;14.00;99.90;;;;;;5064056;28;20529;-67
2022/08/06 00:31:04;;;;;;;3.72;1.20;;;14.00;99.90;;;;;;5052395;28;20394;-68
2022/08/06 00:33:30;;;;;;;1.85;1.08;;;14.00;99.90;;;;;;5064845;28;20128;-68
2022/08/06 00:35:56;;;;;;;5.70;1.45;;;14.00;99.90;;;;;;5069085;28;20044;-68
2022/08/06 00:38:22;;;;;;;3.92;1.33;;;14.00;99.90;;;;;;5071024;28;20043;-68
2022/08/06 00:40:49;;;;;;;2.85;1.20;;;14.00;99.90;;;;;;5055019;28;20395;-67
2022/08/06 00:43:15;;;;;;;4.13;1.13;;;14.00;99.90;;;;;;5045685;28;20041;-68
2022/08/06 00:45:46;;;;;;;3.78;1.20;;;14.00;99.90;;;;;;5016232;28;20470;-66
2022/08/06 00:48:13;;;;;;;7.22;1.35;;;13.90;99.90;;;;;;5026148;28;20106;-68
2022/08/06 00:50:39;;;;;;;8.40;1.60;;;13.90;99.90;;;;;;5064685;28;20039;-69
2022/08/06 00:53:08;;;;;;;3.08;1.40;;;14.00;99.90;;;;;;5070525;28;20044;-67
2022/08/06 00:55:34;;;;;;;5.32;1.60;;;13.90;99.90;;;;;;5052920;28;20093;-67
2022/08/06 00:58:00;;;;;;;5.43;1.38;;;13.90;99.90;;;;;;5044973;28;20135;-66
2022/08/06 01:00:26;;;;;;;5.22;1.50;;;13.90;99.90;;;;;;5067966;28;20128;-67
2022/08/06 01:02:52;;;;;;;3.80;1.33;;;13.80;99.90;;;;;;5065891;28;20123;-67
2022/08/06 01:05:17;;;;;;;4.10;1.45;;;13.80;99.90;;;;;;5070587;28;20036;-68
2022/08/06 01:07:43;;;;;;;3.70;1.48;;;13.70;99.90;;;;;;5050271;28;20448;-67
2022/08/06 01:10:09;;;;;;;3.45;1.20;;;13.70;99.90;;;;;;5046372;28;20040;-66
2022/08/06 01:12:34;;;;;;;12.13;1.40;;;13.60;99.90;;;;;;5063431;28;20521;-68
2022/08/06 01:15:00;;;;;;;5.47;1.38;;;13.60;99.90;;;;;;5070996;28;20123;-68
2022/08/06 01:17:52;;;;;;;5.70;1.10;;;13.60;99.90;;;;;;5067493;28;20064;-67
2022/08/06 01:20:44;;;;;;;5.47;1.40;;;13.50;99.90;;;;;;5038441;28;20045;-68
2022/08/06 01:23:40;;;;;;;4.70;1.40;;;13.50;99.90;;;;;;5064764;28;20045;-68
2022/08/06 01:26:28;;;;;;;4.55;1.10;;;13.50;99.90;;;;;;5061252;28;20137;-67
2022/08/06 01:29:05;;;;;;;4.45;1.13;;;13.40;99.90;;;;;;5068917;28;20044;-67
2022/08/06 01:31:50;;;;;;;4.05;1.20;;;13.40;99.90;;;;;;5062446;28;20051;-67
2022/08/06 01:34:24;;;;;;;3.72;1.10;;;13.40;99.90;;;;;;5068959;28;20124;-67
2022/08/06 01:37:00;;;;;;;3.13;1.25;;;13.30;99.90;;;;;;5045619;28;20401;-68
2022/08/06 01:39:28;;;;;;;3.60;1.15;;;13.30;99.90;;;;;;5041650;28;20120;-67
2022/08/06 01:41:55;;;;;;;2.75;1.38;;;13.30;99.90;;;;;;5063729;28;20040;-68
2022/08/06 01:44:26;;;;;;;2.75;1.20;;;13.20;99.90;;;;;;5051956;28;20066;-68
2022/08/06 01:46:57;;;;;;;2.25;1.15;;;13.20;99.90;;;;;;5055232;28;20487;-67
2022/08/06 01:49:29;;;;;;;4.55;1.30;;;13.20;99.90;;;;;;5070295;28;20104;-67
2022/08/06 01:51:58;;;;;;;3.78;1.40;;;13.20;99.90;;;;;;5071707;28;20094;-68
2022/08/06 01:54:25;;;;;;;4.35;1.30;;;13.10;99.90;;;;;;5067680;28;20458;-67
2022/08/06 01:56:53;;;;;;;1.58;1.00;;;13.10;99.90;;;;;;5050876;28;20074;-67
2022/08/06 01:59:22;;;;;;;3.28;1.33;;;13.20;99.90;;;;;;5071596;28;20449;-68
2022/08/06 02:01:54;;;;;;;2.35;1.23;;;13.10;99.90;;;;;;5053021;28;20044;-67
2022/08/06 02:04:25;;;;;;;4.18;1.40;;;13.10;99.90;;;;;;5063456;28;20048;-68
2022/08/06 02:06:53;;;;;;;3.63;1.30;;;13.10;99.90;;;;;;5069121;28;20045;-68
2022/08/06 02:09:22;;;;;;;2.35;1.30;;;13.10;99.90;;;;;;5072574;28;20036;-67
2022/08/06 02:12:11;;;;;;;3.88;1.30;;;13.10;99.90;;;;;;5049497;28;20041;-69
2022/08/06 02:14:48;;;;;;;3.20;1.40;;;13.10;99.90;;;;;;5065787;28;20044;-67
2022/08/06 02:17:17;;;;;;;3.03;1.30;;;13.00;99.90;;;;;;5072308;28;20098;-67
2022/08/06 02:19:48;;;;;;;4.75;1.83;;;13.00;99.90;;;;;;5064194;28;20131;-67
2022/08/06 02:22:15;;;;;;;3.38;1.40;;;13.00;99.90;;;;;;5070436;28;20041;-68
2022/08/06 02:24:42;;;;;;;3.65;1.30;;;12.90;99.90;;;;;;5072128;28;20107;-68
2022/08/06 02:27:10;;;;;;;2.63;1.27;;;12.90;99.90;;;;;;5064985;28;20036;-68
2022/08/06 02:29:37;;;;;;;4.28;1.58;;;12.90;99.90;;;;;;5057549;28;20120;-68
2022/08/06 02:32:03;;;;;;;4.38;1.38;;;12.90;99.90;;;;;;5065186;28;20050;-67
2022/08/06 02:34:29;;;;;;;5.00;1.80;;;12.80;99.90;;;;;;5054436;28;20052;-67
2022/08/06 02:37:09;;;;;;;4.15;1.30;;;12.80;99.90;;;;;;5071728;28;20102;-68
2022/08/06 02:39:48;;;;;;;3.88;1.25;;;12.80;99.90;;;;;;5046501;28;20081;-66
2022/08/06 02:42:28;;;;;;;3.30;1.40;;;12.80;99.90;;;;;;5064720;28;20036;-68
2022/08/06 02:45:03;;;;;;;3.58;1.65;;;12.80;99.90;;;;;;5069543;28;20036;-68
2022/08/06 02:47:44;;;;;;;4.65;1.63;;;12.80;99.90;;;;;;5072012;28;20082;-68
2022/08/06 02:50:14;;;;;;;2.50;1.30;;;12.80;99.90;;;;;;5054134;28;20444;-68
2022/08/06 02:52:57;;;;;;;4.22;1.40;;;12.80;99.90;;;;;;5047591;28;20052;-68
2022/08/06 02:55:27;;;;;;;4.57;1.52;;;12.80;99.90;;;;;;5063726;28;20080;-68
2022/08/06 02:57:56;;;;;;;4.28;1.63;;;12.80;99.90;;;;;;5063771;28;20347;-68
2022/08/06 03:00:24;;;;;;;2.35;1.58;;;12.80;99.90;;;;;;5070961;28;20119;-68
2022/08/06 03:02:55;;;;;;;2.55;1.45;;;12.80;99.90;;;;;;5070172;28;20044;-67
2022/08/06 03:05:22;;;;;;;3.10;1.33;;;12.70;99.90;;;;;;5067601;28;20514;-68
2022/08/06 03:07:51;;;;;;;2.58;1.50;;;12.80;99.90;;;;;;5070295;28;20443;-69
2022/08/06 03:10:19;;;;;;;3.00;1.38;;;12.70;99.90;;;;;;5071980;28;20042;-67
2022/08/06 03:12:47;;;;;;;4.32;1.85;;;12.70;99.90;;;;;;5062077;28;20498;-68
2022/08/06 03:15:19;;;;;;;4.05;1.80;;;12.80;99.90;;;;;;5038495;28;20076;-68
2022/08/06 03:17:46;;;;;;;4.15;1.70;;;12.70;99.90;;;;;;5050843;28;20549;-68
2022/08/06 03:20:20;;;;;;;4.10;1.63;;;12.70;99.90;;;;;;5068957;28;20041;-68
2022/08/06 03:22:51;;;;;;;3.08;1.52;;;12.70;99.90;;;;;;5048614;28;20043;-70
2022/08/06 03:25:19;;;;;;;2.78;1.38;;;12.70;99.90;;;;;;5063396;28;20068;-67
2022/08/06 03:27:46;;;;;;;2.55;1.33;;;12.70;99.90;;;;;;5053859;28;20067;-68
2022/08/06 03:30:14;;;;;;;2.60;1.33;;;12.70;99.90;;;;;;5071610;28;20397;-68
2022/08/06 03:32:40;;;;;;;;;;;12.70;99.90;;;;;;5067106;28;20127;-67
2022/08/06 03:35:08;;;;;;;4.50;1.45;;;12.70;99.90;;;;;;5071517;28;20265;-67
2022/08/06 03:37:35;;;;;;;5.78;1.95;;;12.70;99.90;;;;;;5063035;28;20128;-68
2022/08/06 03:40:04;;;;;;;3.88;1.33;;;12.70;99.90;;;;;;5051082;28;20101;-68
2022/08/06 03:42:30;;;;;;;4.50;1.95;;;12.70;99.90;;;;;;5066876;28;20045;-68
2022/08/06 03:44:56;;;;;;;2.72;1.42;;;12.70;99.90;;;;;;5034228;28;20047;-68
2022/08/06 03:47:32;;;;;;;3.35;1.38;;;12.70;99.90;;;;;;5071227;28;20055;-67
2022/08/06 03:50:20;;;;;;;3.72;1.40;;;12.70;99.90;;;;;;5050150;28;20056;-69
2022/08/06 03:52:52;;;;;;;6.55;1.75;;;12.70;99.90;;;;;;5066114;28;20049;-67
2022/08/06 03:55:22;;;;;;;2.40;1.50;;;12.70;99.90;;;;;;5069864;28;20049;-67
2022/08/06 03:57:51;;;;;;;3.20;1.50;;;12.70;99.90;;;;;;5070731;28;20410;-67
2022/08/06 04:00:22;;;;;;;6.63;1.70;;;12.70;99.90;;;;;;5069835;28;20048;-68
2022/08/06 04:02:53;;;;;;;2.83;1.33;;;12.60;99.90;;;;;;5036701;28;20048;-67
2022/08/06 04:05:22;;;;;;;3.15;1.70;;;12.70;99.90;;;;;;5069440;28;20044;-67
2022/08/06 04:07:51;;;;;;;4.10;1.40;;;12.60;99.90;;;;;;5059736;28;20079;-68
2022/08/06 04:10:18;;;;;;;4.10;1.30;;;12.60;99.90;;;;;;5064166;28;20041;-67
2022/08/06 04:12:45;;;;;;;4.10;1.70;;;12.60;99.90;;;;;;5070299;28;20044;-69
2022/08/06 04:15:13;;;;;;;3.10;1.60;;;12.60;99.90;;;;;;5055856;28;20076;-67
2022/08/06 04:17:41;;;;;;;;;;;12.70;99.90;;;;;;5069476;28;20037;-68
2022/08/06 04:20:13;;;;;;;4.57;1.75;;;12.60;99.90;;;;;;5068665;28;20375;-68
2022/08/06 04:22:39;;;;;;;5.75;2.38;;;12.70;99.90;;;;;;5044030;28;20040;-67
2022/08/06 04:25:05;;;;;;;5.45;1.98;;;12.70;99.90;;;;;;5070446;28;20127;-68
2022/08/06 04:27:33;;;;;;;4.65;1.70;;;12.80;99.90;;;;;;5053010;28;20127;-68
2022/08/06 04:30:22;;;;;;;4.57;1.52;;;12.80;99.90;;;;;;5062532;28;20036;-67
2022/08/06 04:32:48;;;;;;;4.57;2.00;;;12.90;99.90;;;;;;5052449;28;20052;-67
2022/08/06 04:35:15;;;;;;;2.85;1.70;;;13.00;99.90;;;;;;5069596;28;20091;-69
2022/08/06 04:37:41;;;;;;;4.55;1.70;;;13.10;99.90;;;;;;5062558;28;20098;-68
2022/08/06 04:40:09;;;;;;;2.17;1.60;;;13.10;99.90;;;;;;5044576;28;20052;-69
2022/08/06 04:42:34;;;;;;;4.50;1.70;;;13.20;99.90;;;;;;5066840;28;20166;-67
2022/08/06 04:45:00;;;;;;;5.70;1.83;;;13.30;99.90;;;;;;5070694;28;20128;-69
2022/08/06 04:47:29;;;;;;;2.10;1.40;;;13.40;99.90;;;;;;5068886;28;20051;-68
2022/08/06 04:49:55;;;;;;;3.75;1.92;;;13.40;99.90;;;;;;5049643;28;20448;-67
2022/08/06 04:52:23;;;;;;;3.17;1.55;;;13.50;99.90;;;;;;5063015;28;20112;-69
2022/08/06 04:54:48;;;;;;;6.07;2.10;;;13.50;99.90;;;;;;5070307;28;20045;-68
2022/08/06 04:57:14;;;;;;;2.40;1.50;;;13.50;99.90;;;;;;5070090;28;20041;-72
2022/08/06 04:59:40;;;;;;;4.45;1.92;;;13.60;99.90;;;;;;5069060;28;20452;-67
2022/08/06 05:02:06;;;;;;;4.18;1.77;;;13.60;99.90;;;;;;5059192;28;20453;-67
2022/08/06 05:04:34;;;;;;;;;;;13.70;99.90;;;;;;5036567;28;20044;-67
2022/08/06 05:07:15;;;;;;;2.40;1.60;;;13.70;99.90;;;;;;5069619;28;19920;-67
2022/08/06 05:09:41;;;;;;;5.65;1.83;;;13.70;99.90;;;;;;5066992;28;20055;-67
2022/08/06 05:12:15;;;;;;;3.70;1.73;;;13.70;99.90;;;;;;5068416;28;20083;-68
2022/08/06 05:15:04;;;;;;;4.95;1.80;;;13.70;99.90;;;;;;5062451;28;20147;-68
2022/08/06 05:17:34;;;;;;;5.70;2.03;;;13.70;99.90;;;;;;5070436;28;20039;-67
2022/08/06 05:20:12;;;;;;;3.03;1.70;;;13.70;99.90;;;;;;5051652;28;20076;-67
2022/08/06 05:22:40;;;;;;;4.13;1.60;;;13.80;99.90;;;;;;5066936;28;20041;-69
2022/08/06 05:25:07;;;;;;;;;;;13.70;99.90;;;;;;5074748;28;20044;-68
2022/08/06 05:27:33;;;;;;;2.33;1.48;;;13.70;99.90;;;;;;5073085;28;19928;-68
2022/08/06 05:30:03;;;;;;;5.07;1.75;;;13.70;99.90;;;;;;5049757;28;20049;-67
2022/08/06 05:32:29;;;;;;;3.65;1.60;;;13.80;99.90;;;;;;5042000;28;20057;-67
2022/08/06 05:34:54;;;;;;;5.47;1.70;;;13.90;99.90;;;;;;5062179;28;20052;-67
2022/08/06 05:37:20;;;;;;;5.07;1.80;;;14.00;99.90;;;;;;5069091;28;20043;-68
2022/08/06 05:39:46;;;;;;;3.10;1.65;;;14.10;99.90;;;;;;5053992;28;20075;-67
2022/08/06 05:42:12;;;;;;;2.63;1.55;;;14.20;99.90;;;;;;5031928;28;20041;-68
2022/08/06 05:44:38;;;;;;;3.08;1.50;;;14.30;99.90;;;;;;5052662;28;20159;-69
2022/08/06 05:47:19;;;;;;;2.95;1.50;;;14.40;99.90;;;;;;5047518;28;20055;-69
2022/08/06 05:49:55;;;;;;;9.73;1.70;;;14.50;99.90;;;;;;5061105;28;20049;-67
2022/08/06 05:52:26;;;;;;;4.75;1.67;;;14.60;99.90;;;;;;5063103;28;20056;-68
2022/08/06 05:54:54;;;;;;;8.98;1.35;;;14.60;99.90;;;;;;5069078;28;20041;-69
2022/08/06 05:57:28;;;;;;;3.38;1.80;;;14.60;99.90;;;;;;5072859;28;20171;-67
2022/08/06 06:00:08;;;;;;;6.93;1.90;;;14.60;99.90;;;;;;5072073;28;20056;-66
2022/08/06 06:02:35;;;;;;;5.38;1.73;;;14.50;99.90;;;;;;5045520;28;20082;-67
2022/08/06 06:05:01;;;;;;;4.07;1.60;;;14.50;99.90;;;;;;5068106;28;20074;-67
2022/08/06 06:07:27;;;;;;;2.30;1.35;;;14.50;99.90;;;;;;5067165;28;20065;-66
2022/08/06 06:09:55;;;;;;;3.75;1.45;;;14.50;99.90;;;;;;5073325;28;20115;-67
2022/08/06 06:12:22;;;;;;;4.78;1.48;;;14.50;99.90;;;;;;5070034;28;20071;-66
2022/08/06 06:14:50;;;;;;;3.47;1.27;;;14.50;99.90;;;;;;5071481;28;20193;-69
2022/08/06 06:17:28;;;;;;;1.90;1.40;;;14.50;99.90;;;;;;5049313;28;20426;-69
2022/08/06 06:20:27;;;;;;;2.20;1.30;;;14.60;99.90;;;;;;5071240;28;20052;-67
2022/08/06 06:23:08;;;;;;;7.85;1.90;;;14.60;99.90;;;;;;5071948;28;20048;-67
2022/08/06 06:26:11;;;;;;;5.10;1.60;;;14.80;99.90;;;;;;5054408;28;20052;-67
2022/08/06 06:28:39;;;;;;;2.65;1.40;;;15.00;99.90;;;;;;5067811;28;20422;-67
2022/08/06 06:31:17;;;;;;;3.08;1.35;;;15.30;99.90;;;;;;5044583;28;20033;-69
2022/08/06 06:33:52;;;;;;;4.43;1.40;;;15.50;99.90;;;;;;5066450;28;20070;-67
2022/08/06 06:36:29;;;;;;;7.85;1.50;;;15.80;99.90;;;;;;5054936;28;20230;-68
2022/08/06 06:39:03;;;;;;;3.20;1.50;;;16.00;99.90;;;;;;5054576;28;20036;-68
2022/08/06 06:41:40;;;;;;;3.92;1.40;;;16.20;99.90;;;;;;5072656;28;20460;-67
2022/08/06 06:44:18;;;;;;;4.35;1.30;;;16.40;99.90;;;;;;5071189;28;20519;-68
2022/08/06 06:46:53;;;;;;;2.55;1.30;;;16.70;99.90;;;;;;5047628;28;20041;-66
2022/08/06 06:49:45;;;;;;;3.05;1.23;;;16.80;99.90;;;;;;5068534;28;20380;-67
2022/08/06 06:52:36;;;;;;;1.75;1.20;;;16.90;99.90;;;;;;5057020;28;20040;-66
2022/08/06 06:55:08;;;;;;;2.40;1.20;;;16.90;99.90;;;;;;5066594;28;20043;-68
2022/08/06 06:57:38;;;;;;;3.05;1.15;;;16.90;99.90;;;;;;5052328;28;20044;-65
2022/08/06 07:00:05;;;;;;;3.45;1.02;;;17.00;99.90;;;;;;5067421;28;20391;-70
2022/08/06 07:02:35;;;;;;;3.78;1.70;;;17.10;99.90;;;;;;5053380;28;20083;-65
2022/08/06 07:05:03;;;;;;;3.22;1.40;;;17.20;99.90;;;;;;5045574;28;20116;-66
2022/08/06 07:07:32;;;;;;;2.67;1.20;;;17.20;99.90;;;;;;5043465;28;20380;-67
2022/08/06 07:10:00;;;;;;;3.05;1.20;;;17.20;99.90;;;;;;5064883;28;20063;-67
2022/08/06 07:12:30;;;;;;;5.43;1.30;;;17.30;99.90;;;;;;5050821;28;20048;-66
2022/08/06 07:14:58;;;;;;;5.28;1.60;;;17.30;99.90;;;;;;5037823;28;20053;-67
2022/08/06 07:17:26;;;;;;;1.23;0.90;;;17.50;99.90;;;;;;5072026;28;20119;-66
2022/08/06 07:19:56;;;;;;;4.93;1.30;;;17.70;99.90;;;;;;5065664;28;20056;-67
2022/08/06 07:22:24;;;;;;;4.72;1.35;;;17.90;99.90;;;;;;5071630;28;20036;-70
2022/08/06 07:24:59;;;;;;;4.20;1.20;;;18.10;99.90;;;;;;5066373;28;20128;-67
2022/08/06 07:27:32;;;;;;;3.95;1.17;;;18.40;99.90;;;;;;5063667;28;20048;-70
2022/08/06 07:29:58;;;;;;;3.28;1.20;;;18.50;99.90;;;;;;5045991;28;20436;-69
2022/08/06 07:32:25;;;;;;;4.55;0.90;;;18.70;99.90;;;;;;5068606;28;20051;-66
2022/08/06 07:34:53;;;;;;;4.18;1.30;;;18.90;99.90;;;;;;5070656;28;20067;-66
2022/08/06 07:37:21;;;;;;;;;;;18.80;99.90;;;;;;5062305;28;20517;-68
2022/08/06 07:39:49;;;;;;;3.97;0.90;;;18.70;99.90;;;;;;5045743;28;20022;-68
2022/08/06 07:42:17;;;;;;;2.33;1.00;;;18.60;99.90;;;;;;5068643;28;20040;-70
2022/08/06 07:44:47;;;;;;;2.85;1.15;;;18.50;99.90;;;;;;5062754;28;20068;-67
2022/08/06 07:47:22;;;;;;;3.30;1.10;;;18.30;99.90;;;;;;5068160;28;20036;-66
2022/08/06 07:49:58;;;;;;;4.25;1.05;;;18.20;99.90;;;;;;5050027;28;20052;-67
2022/08/06 07:52:28;;;;;;;4.30;1.50;;;18.30;99.90;;;;;;5069236;28;20133;-67
2022/08/06 07:54:55;;;;;;;4.47;1.30;;;18.30;99.90;;;;;;5070514;28;20111;-69
2022/08/06 07:57:22;;;;;;;4.63;0.93;;;18.40;99.90;;;;;;5067280;28;20066;-68
2022/08/06 07:59:48;;;;;;;5.67;1.20;;;18.60;99.90;;;;;;5060965;28;20041;-66
2022/08/06 08:02:17;;;;;;;4.13;1.00;;;18.70;99.90;;;;;;5069426;28;20041;-68
2022/08/06 08:07:28;;;;;;;3.67;1.17;;;19.00;99.90;;;;;;5071251;28;20204;-69
2022/08/06 08:09:55;;;;;;;4.25;0.98;;;19.20;99.90;;;;;;5061999;28;20040;-71
2022/08/06 08:12:22;;;;;;;6.37;1.20;;;19.20;99.90;;;;;;5068768;28;20486;-68
2022/08/06 08:14:50;;;;;;;3.87;1.37;;;19.40;99.90;;;;;;5071381;28;20298;-68
2022/08/06 08:17:16;;;;;;;7.20;1.20;;;19.60;99.90;;;;;;5052584;28;20398;-66
2022/08/06 08:19:43;;;;;;;2.65;1.15;;;19.80;99.30;;;;;;5042058;28;20045;-67
2022/08/06 08:22:10;;;;;;;5.60;1.42;;;19.90;98.80;;;;;;5070508;28;20044;-68
2022/08/06 08:24:37;;;;;;;6.25;1.88;;;20.10;96.90;;;;;;5035780;28;20171;-68
2022/08/06 08:27:03;;;;;;;5.78;1.45;;;20.10;97.70;;;;;;5044397;28;20187;-66
2022/08/06 08:29:29;;;;;;;3.90;1.10;;;20.10;96.90;;;;;;5070574;28;20040;-67
2022/08/06 08:31:56;;;;;;;2.35;1.10;;;20.20;97.00;;;;;;5036933;28;20114;-67
2022/08/06 08:34:22;;;;;;;4.03;1.15;;;20.40;96.20;;;;;;5070926;28;20044;-67
2022/08/06 08:36:48;;;;;;;4.90;1.40;;;20.40;95.80;;;;;;5068974;28;20044;-67
2022/08/06 08:39:15;;;;;;;4.07;1.30;;;20.30;96.20;;;;;;5062633;28;20052;-65
2022/08/06 08:41:48;;;;;;;2.22;1.20;;;20.40;95.80;;;;;;5063325;28;20120;-67
2022/08/06 08:44:19;;;;;;;4.25;1.40;;;20.30;95.10;;;;;;5049014;28;20045;-67
2022/08/06 08:46:45;;;;;;;3.67;1.30;;;20.00;94.20;;;;;;5071340;28;20127;-69
2022/08/06 08:49:41;;;;;;;4.20;1.30;;;19.70;94.30;;;;;;5063364;28;20041;-65
2022/08/06 08:52:15;;;;;;;7.55;1.52;;;19.40;94.90;;;;;;5063766;28;20045;-67
2022/08/06 08:54:51;;;;;;;3.35;1.30;;;19.10;95.90;;;;;;5069805;28;20059;-66
2022/08/06 08:57:18;;;;;;;4.72;1.42;;;19.00;96.60;;;;;;5063537;28;20083;-65
2022/08/06 08:59:44;;;;;;;4.95;1.20;;;18.80;98.00;;;;;;5055585;28;20131;-66
2022/08/06 09:02:13;;;;;;;5.72;1.40;;;18.50;99.90;;;;;;5065842;28;20098;-66
2022/08/06 09:04:40;;;;;;;4.50;1.52;;;18.30;99.90;;;;;;5063260;28;20124;-65
2022/08/06 09:07:08;;;;;;;5.15;1.60;;;18.10;99.90;;;;;;5071613;28;20406;-67
2022/08/06 09:09:34;;;;;;;3.53;1.60;;;17.90;99.90;;;;;;5074373;28;20625;-68
2022/08/06 09:12:00;;;;;;;8.32;1.35;;;17.80;99.90;;;;;;5071507;28;20049;-66
2022/08/06 09:14:28;;;;;;;5.65;2.47;;;17.70;99.90;;;;;;5056537;28;20105;-65
2022/08/06 09:16:53;;;;;;;4.95;2.00;;;17.80;99.90;;;;;;5066009;28;20037;-66
2022/08/06 09:19:20;;;;;;;4.90;1.65;;;17.80;99.90;;;;;;5072976;28;20410;-67
2022/08/06 09:21:46;;;;;;;7.55;2.45;;;17.80;99.90;;;;;;5051176;28;20045;-68
2022/08/06 09:24:12;;;;;;;3.90;1.50;;;17.80;99.90;;;;;;5064288;28;20469;-65
2022/08/06 09:26:58;;;;;;;6.40;1.63;;;18.00;99.90;;;;;;5046091;28;20041;-66
2022/08/06 09:29:24;;;;;;;6.30;1.73;;;17.90;99.90;;;;;;5071777;28;20495;-68
2022/08/06 09:31:50;;;;;;;3.30;1.90;;;18.10;99.90;;;;;;5055489;28;20091;-66
2022/08/06 09:34:16;;;;;;;4.63;1.70;;;18.40;99.90;;;;;;5049853;28;20128;-66
2022/08/06 09:36:43;;;;;;;7.43;1.70;;;18.60;99.90;;;;;;5071215;28;20041;-66
2022/08/06 09:39:10;;;;;;;2.92;1.70;;;18.80;99.90;;;;;;5063319;28;20041;-67
2022/08/06 09:41:48;;;;;;;4.30;1.80;;;18.80;99.90;;;;;;5073039;28;20040;-67
2022/08/06 09:44:14;;;;;;;;;;;19.10;99.20;;;;;;5067646;28;20390;-66
2022/08/06 09:46:42;;;;;;;2.80;1.92;;;19.20;99.80;;;;;;5065302;28;19946;-67
2022/08/06 09:49:10;;;;;;;5.57;2.03;;;19.40;98.20;;;;;;5053478;28;20509;-67
2022/08/06 09:51:37;;;;;;;;;;;19.50;98.30;;;;;;5056016;28;20398;-67
2022/08/06 09:54:05;;;;;;;4.75;1.88;;;19.80;99.10;;;;;;5053242;28;19921;-67
2022/08/06 09:56:31;;;;;;;;;;;20.00;97.10;;;;;;5072404;28;20115;-67
2022/08/06 09:59:05;;;;;;;2.92;1.73;;;20.00;95.20;;;;;;5047495;28;19921;-64
2022/08/06 10:01:39;;;;;;;4.95;1.85;;;20.00;95.00;;;;;;5066493;28;20033;-65
2022/08/06 10:04:06;;;;;;;4.68;1.85;;;20.10;94.10;;;;;;5072463;28;20071;-65
2022/08/06 10:06:32;;;;;;;5.20;2.00;;;20.20;94.30;;;;;;5072079;28;20066;-68
2022/08/06 10:09:09;;;;;;;3.95;1.63;;;20.40;94.20;;;;;;5065635;28;20182;-67
2022/08/06 10:11:38;;;;;;;4.85;2.08;;;20.30;92.30;;;;;;5072835;28;20101;-66
2022/08/06 10:14:24;;;;;;;4.13;2.05;;;20.20;92.60;;;;;;5073624;28;20062;-68
2022/08/06 10:17:15;;;;;;;4.47;2.28;;;20.30;93.10;;;;;;5073269;28;20478;-67
2022/08/06 10:19:43;;;;;;;4.22;1.88;;;20.40;93.40;;;;;;5054055;28;20040;-67
2022/08/06 10:22:13;;;;;;;3.97;2.20;;;20.60;92.20;;;;;;5065653;28;20056;-69
2022/08/06 10:24:45;;;;;;;7.68;2.70;;;20.60;92.70;;;;;;5069922;28;20041;-65
2022/08/06 10:27:14;;;;;;;3.92;2.00;;;20.80;92.70;;;;;;5073325;28;20052;-66
2022/08/06 10:29:51;;;;;;;3.05;1.90;;;21.00;92.00;;;;;;5052562;28;20045;-67
2022/08/06 10:32:31;;;;;;;2.80;1.80;;;21.30;92.80;;;;;;5073240;28;20194;-66
2022/08/06 10:35:03;;;;;;;3.25;1.85;;;21.70;92.40;;;;;;5068103;28;20084;-67
2022/08/06 10:37:34;;;;;;;4.97;2.00;;;22.00;90.00;;;;;;5035087;28;20076;-67
2022/08/06 10:40:02;;;;;;;3.53;1.70;;;22.10;81.50;;;;;;5050495;28;20049;-66
2022/08/06 10:42:28;;;;;;;5.30;2.22;;;22.20;82.90;;;;;;5072566;28;20059;-64
2022/08/06 10:44:55;;;;;;;4.22;2.05;;;22.40;83.40;;;;;;5072039;28;20406;-66
2022/08/06 10:47:22;;;;;;;4.78;2.05;;;22.30;84.30;;;;;;5054554;28;20044;-67
2022/08/06 10:49:49;;;;;;;3.58;2.03;;;22.10;86.10;;;;;;5072686;28;20048;-67
2022/08/06 10:52:15;;;;;;;3.33;1.90;;;21.90;86.60;;;;;;5065005;28;20040;-68
2022/08/06 10:54:41;;;;;;;3.78;2.10;;;22.00;82.40;;;;;;5062225;28;20600;-67
2022/08/06 10:57:09;;;;;;;3.95;2.00;;;22.10;79.60;;;;;;5048886;28;20048;-68
2022/08/06 10:59:35;;;;;;;4.50;2.00;;;22.10;77.90;;;;;;5070082;28;20047;-67
2022/08/06 11:02:27;;;;;;;3.05;1.73;;;22.30;79.60;;;;;;5054025;28;20049;-67
2022/08/06 11:05:08;;;;;;;5.93;2.30;;;22.40;76.10;;;;;;5049489;28;20040;-67
2022/08/06 11:07:40;;;;;;;4.65;1.90;;;22.20;75.60;;;;;;5070385;28;20044;-66
2022/08/06 11:10:45;;;;;;;4.20;2.42;;;22.30;78.10;;;;;;5046325;28;20141;-65
2022/08/06 11:13:28;;;;;;;2.80;2.17;;;22.60;73.80;;;;;;5071222;28;20131;-66
2022/08/06 11:15:54;;;;;;;3.80;2.20;;;22.50;72.70;;;;;;5048746;28;20056;-67
2022/08/06 11:18:21;;;;;;;3.15;2.08;;;22.70;72.70;;;;;;5071642;28;20041;-68
2022/08/06 11:20:58;;;;;;;4.40;2.40;;;22.90;72.60;;;;;;5046464;28;20044;-66
2022/08/06 11:23:26;;;;;;;3.85;2.30;;;23.20;70.70;;;;;;5042709;28;20087;-66
2022/08/06 11:25:56;;;;;;;3.92;2.85;;;23.10;67.50;;;;;;5064009;28;20033;-65
2022/08/06 11:28:31;;;;;;;3.60;2.20;;;23.00;69.40;;;;;;5064516;28;20475;-66
2022/08/06 11:31:04;;;;;;;4.22;2.67;;;22.80;71.40;;;;;;5049308;28;20055;-67
2022/08/06 11:33:36;;;;;;;6.20;2.45;;;22.90;71.80;;;;;;5052725;28;20064;-66
2022/08/06 11:36:09;;;;;;;6.45;2.70;;;23.00;70.40;;;;;;5067420;28;20045;-65
2022/08/06 11:38:47;;;;;;;5.68;2.78;;;22.80;70.70;;;;;;5055031;28;20455;-67
2022/08/06 11:41:22;;;;;;;6.72;3.28;;;22.70;72.10;;;;;;5054020;28;20043;-64
2022/08/06 11:44:07;;;;;;;5.68;2.80;;;22.70;70.70;;;;;;5067662;28;20055;-66
2022/08/06 11:46:37;;;;;;;5.65;2.90;;;22.60;70.60;;;;;;5064087;28;20094;-67
2022/08/06 11:49:03;;;;;;;4.43;2.70;;;22.70;72.40;;;;;;5070842;28;20143;-67
2022/08/06 11:51:41;;;;;;;4.35;2.78;;;23.10;74.40;;;;;;5053463;28;20040;-67
2022/08/06 11:54:12;;;;;;;5.00;3.10;;;23.50;72.50;;;;;;5049503;28;20526;-67
2022/08/06 11:57:09;;;;;;;3.88;3.00;;;23.70;69.20;;;;;;5071447;28;20044;-69
2022/08/06 11:59:45;;;;;;;5.82;3.03;;;23.80;70.60;;;;;;5043583;28;20163;-64
2022/08/06 12:02:49;;;;;;;5.93;3.20;;;23.80;68.20;;;;;;5048587;28;20048;-66
2022/08/06 12:05:15;;;;;;;4.97;3.10;;;23.80;68.40;;;;;;5051040;28;20198;-66
2022/08/06 12:07:44;;;;;;;4.55;3.25;;;23.60;69.70;;;;;;5047140;28;20147;-65
2022/08/06 12:10:12;;;;;;;5.72;3.10;;;23.80;69.20;;;;;;5070255;28;20048;-66
2022/08/06 12:12:48;;;;;;;5.72;2.95;;;23.90;68.90;;;;;;5062180;28;20083;-67
2022/08/06 12:15:16;;;;;;;3.42;3.05;;;24.10;70.90;;;;;;5063609;28;20107;-67
2022/08/06 12:17:57;;;;;;;5.78;3.60;;;24.20;70.00;;;;;;5062456;28;20155;-67
2022/08/06 12:20:31;;;;;;;4.80;3.15;;;24.20;69.90;;;;;;5070701;28;20162;-67
2022/08/06 12:22:58;;;;;;;4.97;3.63;;;24.20;68.10;;;;;;5042887;28;20478;-67
2022/08/06 12:25:32;;;;;;;4.72;3.08;;;23.90;65.70;;;;;;5058821;28;20044;-67
2022/08/06 12:27:59;;;;;;;5.65;3.65;;;23.60;66.50;;;;;;5051606;28;20506;-67
2022/08/06 12:30:41;;;;;;;5.68;3.40;;;23.40;66.70;;;;;;5069386;28;20128;-67
2022/08/06 12:33:08;;;;;;;4.22;3.35;;;23.60;68.70;;;;;;5070353;28;20544;-67
2022/08/06 12:35:35;;;;;;;5.28;3.30;;;23.80;65.30;;;;;;5071222;28;20128;-67
2022/08/06 12:38:00;;;;;;;5.80;3.30;;;23.90;62.10;;;;;;5068323;28;20045;-64
2022/08/06 12:40:26;;;;;;;4.63;3.30;;;23.90;61.90;;;;;;5035929;28;20051;-68
2022/08/06 12:43:14;;;;;;;4.97;3.42;;;23.80;58.70;;;;;;5070914;28;20047;-67
2022/08/06 12:45:40;;;;;;;5.53;3.33;;;23.90;61.40;;;;;;5047134;28;20041;-66
2022/08/06 12:48:10;;;;;;;4.85;3.22;;;23.90;62.50;;;;;;5066857;28;20041;-67
2022/08/06 12:50:43;;;;;;;4.22;3.22;;;24.00;64.40;;;;;;5069560;28;20045;-66
2022/08/06 12:53:17;;;;;;;5.32;3.10;;;24.10;62.40;;;;;;5063603;28;20074;-66
2022/08/06 12:55:44;;;;;;;5.57;3.20;;;24.20;64.70;;;;;;5051924;28;20044;-68
2022/08/06 12:58:12;;;;;;;6.32;3.35;;;24.40;63.50;;;;;;5065696;28;20395;-69
2022/08/06 13:00:39;;;;;;;6.35;3.17;;;24.60;63.80;;;;;;5046315;28;20123;-67
2022/08/06 13:03:06;;;;;;;4.18;2.83;;;24.90;63.90;;;;;;5052172;28;20053;-67
2022/08/06 13:05:33;;;;;;;;;;;25.10;61.60;;;;;;5052910;28;20124;-65
2022/08/06 13:07:59;;;;;;;4.15;3.17;;;25.10;62.20;;;;;;5048308;28;19927;-65
2022/08/06 13:10:26;;;;;;;9.43;3.10;;;25.10;63.80;;;;;;5070105;28;20033;-65